Ashland, Nebraska
Current Conditions -  °F | °C
As of 10:15 AM on Sunday 25 Jan 2015 (Local Time) from KMLE Reporting Station
Overcast Overcast  
Wind Chill: -2°   Ceiling: 1300
Heat Index:   Visibility: 10mi
Dew Point:   Wind: 16mph
Humidity: 83%   Direction: 350°N
Pressure: 29.92"   Gusts: 22mph
Location:  41.04°N, 96.37°W
Report Text: KMLE 251615Z AUTO 35014G19KT 320V020 10SM OVC013 03/00 A2992 RMK AO2 T00280001
Loading
Personal Weather Stations






























Interactive Weather Map New forecast layout! Learn more

10-Day Weather Forecast

Advertisements
Track Severe Weather on mobile